Login to view Products
 
Sunday, May 19, 2019 (11:32 UTC)
Dubai International Airport
Last Updated: 19-May-2019 (11:31Z)
Wind Dir/Speed: NNE at 11 kt
Temperature: 34.1°C
Rel. Humidity: 36 %
Pressure: 1006.6 hPa
Visibility: 10000 m
  • METAR OMDB 191130Z 35011KT 330V030 CAVOK 35/19 Q1006 NOSIG
  • TAF OMDB 191055Z 1912/2018 35013KT 8000 NSC PROB30 TEMPO 1912/2005 VRB20G35KT 3000 SHRA BLDU FEW040TCU BECMG 1915/1917 12007KT BECMG 2007/2009 33013KT BECMG 2015/2017 04005KT=
D:\Input Parser\Destinations\Final\10\OMDBL12181055375263830.txt
1